Mount Orab, Ohio
Current Conditions -  °F | °C
As of 3:31 AM on Friday 24 Oct 2014 (Local Time) from KLUK Reporting Station
Haze Haze  
Wind Chill: 40°   Ceiling: Unl
Heat Index: 40°   Visibility: 3mi
Dew Point: 39°   Wind: 0mph
Humidity: 97%   Direction: NA
Pressure: 30.14"   Gusts: NA
Location:  39.03°N, 83.92°W
Report Text: KLUK 240731Z AUTO 00000KT 3SM R21L/2800VP6000FT BR CLR 04/04 A3014 RMK AO2 T00440039
Loading
Personal Weather Stations






























Interactive Weather Map
Tropical Storm Tracking
New forecast layout! Learn more

10-Day Weather Forecast

Advertisements
Track Severe Weather on mobile